Aérodrome :







RETROUVEZ-NOUS SUR...

 
LOGIN :

S'inscrire | Disclaimer

   EN    FR    IT 

 









Légende :    VFR   VFR Marginal   IFR   IFR Intensif   IFR Très Intensif
Visi : 
Plafond : 
>= 8 km
>= 3000ft
5 à 8 km
1000 à 3000 ft
1500m à 5 km
500 à 1000 ft
800 à 1500m
200 à 500 ft
< 800m
< 200 ft
Symboles :   Orages  Brouillard  Fortes neiges  Fortes précipitations  Vent > 20 kt






- Altitude de l'aérodrome : 56 ft


KRKD - Knox County Regional

DERNIER METAR :
  • 241656Z AUTO 19006KT 10SM CLR 07/01 A2999 RMK AO2 SLP156 T00720006

METARs EXPIRÉS :
  • 241556Z AUTO 19006KT 10SM CLR 07/01 A3001 RMK AO2 SLP163 T00720006
  • 241456Z AUTO 18008KT 10SM CLR 06/02 A3002 RMK AO2 SLP165 T00610017 58002

TAF KRKD
Valide du 24 à 18h jusqu'au 25 à 18h UTC


241731Z 2418/2518 20007KT P6SM SKC
FM251100 00000KT P6SM BKN140
FM251500 03005KT P6SM BKN050



MET'MAP, la Météo Aéronautique d'un coup d'oeil ! - Copyright ORBIFLY Décembre 2007 - Disclaimer

ORBIFLY MET'MAP TEAM :

Programmation & Développement : Alexandra Zaïnal
Sur une idée originale de : Baudouin d'Aumeries
Assistance à la programmation : Marc-Olivier Méhu
Soutien technique & logistique : Manuel Goepfert

Contact : metmap@orbifly.com




SOURCES & CREDITS :

   NOAA